Time;durP1;ratioP1;P1;durP2;ratioP2;P2;SDS_P1;SDS_P2;PMS_P1;PMS_P2;Temp;Humidity;BMP_temperature;BMP_pressure;BME280_temperature;BME280_humidity;BME280_pressure;Samples;Min_cycle;Max_cycle;Signal;HPM_P1;HPM_P2
2022/06/04 00:00:40;;;;;;;6.53;2.50;;;;;;;;;;5031284;28;20041;-86
2022/06/04 00:03:06;;;;;;;2.88;1.77;;;;;;;14.43;64.83;68372.09;5005284;28;20114;-86
2022/06/04 00:05:35;;;;;;;3.63;2.05;;;;;;;14.34;65.27;68361.28;5013186;28;20057;-86
2022/06/04 00:08:01;;;;;;;3.58;1.77;;;;;;;;;;5010574;28;20092;-85
2022/06/04 00:15:58;;;;;;;5.95;2.28;;;;;;;14.17;65.66;68348.41;5001374;28;20099;-86
2022/06/04 00:18:25;;;;;;;4.30;1.95;;;;;;;14.10;66.10;68340.47;4995222;28;20045;-86
2022/06/04 00:20:52;;;;;;;5.05;2.08;;;;;;;14.06;65.82;68335.31;5024421;28;20053;-85
2022/06/04 00:23:19;;;;;;;5.97;2.28;;;;;;;14.00;66.31;68335.00;5018219;28;20037;-85
2022/06/04 00:25:53;;;;;;;5.85;2.72;;;;;;;13.95;66.33;68323.38;5010180;28;20041;-85
2022/06/04 00:28:21;;;;;;;4.80;2.47;;;;;;;13.93;66.74;68321.69;5022501;28;20562;-86
2022/06/04 00:30:47;;;;;;;5.75;2.50;;;;;;;13.80;67.07;68309.00;5031028;28;20069;-85
2022/06/04 00:33:12;;;;;;;4.07;2.33;;;;;;;;;;5021056;28;20042;-85
2022/06/04 00:35:38;;;;;;;3.72;2.55;;;;;;;;;;5009882;28;20049;-85
2022/06/04 00:38:05;;;;;;;4.07;2.30;;;;;;;13.82;67.85;68309.16;5016831;28;20067;-85
2022/06/04 00:40:49;;;;;;;4.50;2.28;;;;;;;13.76;68.01;68296.97;5030298;28;20038;-85
2022/06/04 00:43:14;;;;;;;4.15;2.17;;;;;;;13.79;68.56;68305.75;5014392;28;20065;-85
2022/06/04 00:46:17;;;;;;;4.82;2.50;;;;;;;13.82;68.12;68308.59;5029472;28;20068;-84
2022/06/04 00:48:42;;;;;;;3.38;2.50;;;;;;;13.73;69.02;68298.94;5030926;28;20548;-84
2022/06/04 00:51:08;;;;;;;6.32;3.25;;;;;;;;;;5030308;28;20120;-84
2022/06/04 00:53:34;;;;;;;6.57;2.95;;;;;;;;;;5029981;28;20519;-84
2022/06/04 00:56:05;;;;;;;4.57;3.00;;;;;;;13.56;71.10;68280.16;5029824;28;20508;-84
2022/06/04 00:58:54;;;;;;;5.55;2.95;;;;;;;13.56;71.69;68280.16;5029857;28;20513;-84
2022/06/04 01:01:27;;;;;;;5.72;3.42;;;;;;;13.49;72.00;68272.75;5021175;28;20045;-84
2022/06/04 01:03:58;;;;;;;5.65;3.25;;;;;;;;;;4979274;28;20049;-85
2022/06/04 01:06:39;;;;;;;4.93;3.08;;;;;;;13.50;72.82;68273.31;5013581;28;20039;-84
2022/06/04 01:09:04;;;;;;;5.78;3.90;;;;;;;13.41;73.37;68268.44;5014023;28;20041;-85
2022/06/04 01:12:15;;;;;;;5.15;3.47;;;;;;;13.41;73.82;68263.09;5026970;28;20416;-85
2022/06/04 01:14:52;;;;;;;6.40;3.90;;;;;;;13.38;74.10;68259.66;4988737;28;20049;-85
2022/06/04 01:17:36;;;;;;;6.35;4.05;;;;;;;;;;5024691;28;20160;-85
2022/06/04 01:20:25;;;;;;;6.72;4.10;;;;;;;13.24;75.26;68244.88;5027332;28;20124;-85
2022/06/04 01:23:12;;;;;;;5.70;4.05;;;;;;;13.22;75.50;68242.03;5016145;28;20051;-88
2022/06/04 01:26:15;;;;;;;6.45;3.75;;;;;;;13.03;76.70;68220.97;5022327;28;20056;-85
2022/06/04 01:28:48;;;;;;;5.30;3.88;;;;;;;13.02;76.93;68214.50;5014788;28;20045;-87
2022/06/04 01:31:20;;;;;;;7.88;4.00;;;;;;;13.02;77.21;68220.41;5027805;28;20099;-85
2022/06/04 01:34:00;;;;;;;7.15;4.40;;;;;;;12.94;77.80;68205.41;5019466;28;20444;-86
2022/06/04 01:36:32;;;;;;;5.93;4.25;;;;;;;12.83;78.63;68198.81;5009389;28;20030;-87
2022/06/04 01:39:06;;;;;;;6.13;4.70;;;;;;;12.79;78.94;68194.81;4979751;28;20132;-86
2022/06/04 01:41:44;;;;;;;7.18;4.57;;;;;;;12.84;79.11;68195.19;5028614;28;20488;-86
2022/06/04 01:44:15;;;;;;;7.95;4.90;;;;;;;12.75;79.94;68190.28;5029582;28;20575;-84
2022/06/04 01:46:48;;;;;;;7.47;4.88;;;;;;;12.72;80.12;68186.88;5029669;28;20037;-85
2022/06/04 01:49:22;;;;;;;9.18;5.32;;;;;;;12.71;80.21;68185.72;5031423;28;20577;-84
2022/06/04 01:51:50;;;;;;;6.88;5.10;;;;;;;12.79;79.55;68194.81;5030196;28;20061;-84
2022/06/04 01:54:39;;;;;;;7.45;5.10;;;;;;;12.72;80.27;68186.88;5017607;28;20036;-84
2022/06/04 01:57:07;;;;;;;;;;;;;;;12.67;80.58;68181.19;5012865;28;20558;-85
2022/06/04 01:59:45;;;;;;;11.15;5.25;;;;;;;12.59;80.96;68172.09;5021569;28;20339;-85
2022/06/04 02:02:14;;;;;;;9.65;5.32;;;;;;;;;;5022785;28;20088;-84
2022/06/04 02:04:41;;;;;;;9.80;5.25;;;;;;;;;;5030990;28;20038;-86
2022/06/04 02:07:31;;;;;;;7.82;6.18;;;;;;;;;;5038655;28;20828;-85
2022/06/04 02:10:05;;;;;;;7.32;5.43;;;;;;;12.54;81.74;68166.41;5013307;28;20049;-84
2022/06/04 02:12:33;;;;;;;8.30;5.90;;;;;;;12.52;82.02;68164.16;5008859;28;20137;-85
2022/06/04 02:15:03;;;;;;;8.90;6.63;;;;;;;12.41;82.86;68154.88;5011123;28;20048;-85
2022/06/04 02:17:30;;;;;;;7.03;5.70;;;;;;;12.44;82.54;68160.97;4997884;28;20095;-85
2022/06/04 02:19:55;;;;;;;7.47;6.00;;;;;;;12.34;83.58;68144.81;5028806;28;20033;-85
2022/06/04 02:22:20;;;;;;;10.18;6.53;;;;;;;;;;5010490;28;20052;-85
2022/06/04 02:24:46;;;;;;;10.70;5.57;;;;;;;12.32;83.86;68142.56;5028650;28;20044;-85
2022/06/04 02:27:11;;;;;;;9.70;6.30;;;;;;;;;;5028210;28;20038;-85
2022/06/04 02:29:38;;;;;;;9.82;6.07;;;;;;;12.35;83.87;68148.63;5027688;28;20046;-86
2022/06/04 02:32:20;;;;;;;10.30;6.35;;;;;;;12.27;84.07;68142.19;5028507;28;20116;-85
2022/06/04 02:34:54;;;;;;;9.80;6.50;;;;;;;12.21;84.87;68130.06;5017503;28;20045;-86
2022/06/04 02:37:27;;;;;;;8.43;6.80;;;;;;;12.18;85.25;68129.88;5028381;28;20091;-85
2022/06/04 02:40:16;;;;;;;9.15;6.93;;;;;;;12.14;85.33;68122.66;5028456;28;20061;-85
2022/06/04 02:43:00;;;;;;;8.98;6.55;;;;;;;12.13;85.60;68120.97;5009338;28;20050;-85
2022/06/04 02:45:36;;;;;;;7.75;6.50;;;;;;;12.06;86.26;68118.34;5020648;28;20037;-85
2022/06/04 02:48:28;;;;;;;11.85;7.03;;;;;;;12.03;86.35;68112.84;5023184;28;20041;-85
2022/06/04 02:51:19;;;;;;;10.23;7.28;;;;;;;11.95;87.34;68101.06;5007319;28;20115;-85
2022/06/04 02:53:46;;;;;;;9.48;5.93;;;;;;;12.00;86.87;68109.44;5018757;28;20108;-86
2022/06/04 02:56:20;;;;;;;8.73;7.25;;;;;;;11.94;87.38;68099.94;5014831;28;20116;-85
2022/06/04 02:58:51;;;;;;;8.35;6.50;;;;;;;11.98;87.18;68106.59;5011872;28;20059;-85
2022/06/04 03:01:19;;;;;;;10.52;7.05;;;;;;;12.02;86.66;68109.03;5005186;28;20068;-84
2022/06/04 03:03:44;;;;;;;9.82;6.80;;;;;;;11.95;87.26;68101.63;5026502;28;20046;-84
2022/06/04 03:06:25;;;;;;;11.43;8.00;;;;;;;11.93;87.37;68099.38;5019516;28;20046;-84
2022/06/04 03:08:52;;;;;;;11.70;7.13;;;;;;;11.84;88.18;68094.44;5014759;28;20386;-85
2022/06/04 03:11:18;;;;;;;13.25;7.45;;;;;;;11.85;87.90;68090.28;5011026;28;20068;-85
2022/06/04 03:13:45;;;;;;;8.48;7.30;;;;;;;11.88;87.95;68098.44;5027317;28;20061;-84
2022/06/04 03:16:12;;;;;;;11.27;8.23;;;;;;;11.82;88.55;68086.28;5009394;28;20038;-83
2022/06/04 03:18:37;;;;;;;13.30;8.95;;;;;;;11.77;88.88;68083.84;5023517;28;20579;-83
2022/06/04 03:21:04;;;;;;;12.55;7.80;;;;;;;11.77;88.71;68081.19;5005258;28;20120;-83
2022/06/04 03:23:29;;;;;;;11.27;7.70;;;;;;;;;;5007815;28;20049;-83
2022/06/04 03:25:55;;;;;;;12.32;8.18;;;;;;;11.71;89.55;68074.38;5022103;28;21082;-83
2022/06/04 03:28:20;;;;;;;11.18;8.60;;;;;;;11.72;88.94;68080.81;5014454;28;20157;-83
2022/06/04 03:30:45;;;;;;;11.75;7.90;;;;;;;11.63;90.72;68067.94;5008204;28;20041;-84
2022/06/04 03:33:11;;;;;;;10.68;8.30;;;;;;;11.63;90.65;68065.28;5011888;28;20155;-83
2022/06/04 03:35:36;;;;;;;13.55;8.23;;;;;;;11.63;90.69;68065.84;5009047;28;20029;-82
2022/06/04 03:38:02;;;;;;;13.23;7.88;;;;;;;11.67;89.91;68069.81;5023443;28;20034;-83
2022/06/04 03:40:28;;;;;;;12.60;8.13;;;;;;;11.67;90.49;68070.38;4995740;28;20045;-85
2022/06/04 03:42:53;;;;;;;13.23;8.38;;;;;;;11.68;90.64;68071.53;5021583;28;20409;-84
2022/06/04 03:45:18;;;;;;;11.18;8.45;;;;;;;11.67;90.70;68072.47;5021363;28;20049;-83
2022/06/04 03:47:44;;;;;;;10.27;7.70;;;;;;;11.68;90.83;68073.59;5025298;28;20597;-83
2022/06/04 03:50:13;;;;;;;13.38;8.32;;;;;;;11.65;91.17;68067.53;5027385;28;20041;-84
2022/06/04 03:52:39;;;;;;;13.32;8.77;;;;;;;11.69;91.17;68072.09;5022968;28;20048;-83
2022/06/04 03:55:06;;;;;;;11.75;8.45;;;;;;;11.66;91.15;68068.69;4998985;28;20121;-84
2022/06/04 03:57:45;;;;;;;11.38;8.90;;;;;;;11.64;91.39;68066.97;5021210;28;20048;-83
2022/06/04 04:00:32;;;;;;;12.45;7.75;;;;;;;11.72;90.93;68075.50;5016253;28;20067;-83
2022/06/04 04:02:59;;;;;;;11.35;8.85;;;;;;;11.71;91.15;68077.03;5000036;28;20042;-84
2022/06/04 04:05:32;;;;;;;11.77;8.35;;;;;;;11.73;91.08;68079.28;5014921;28;20735;-84
2022/06/04 04:07:58;;;;;;;11.65;8.52;;;;;;;11.74;90.73;68081.00;5006357;28;20632;-83
2022/06/04 04:10:26;;;;;;;12.20;8.80;;;;;;;11.82;90.52;68089.50;5011241;28;20030;-83
2022/06/04 04:12:51;;;;;;;13.27;9.32;;;;;;;11.84;90.05;68088.56;5006143;28;20045;-83
2022/06/04 04:15:18;;;;;;;13.00;9.23;;;;;;;11.88;90.46;68093.13;5011076;28;20049;-83
2022/06/04 04:17:43;;;;;;;14.23;8.93;;;;;;;12.00;89.38;68100.84;5021237;28;20037;-83
2022/06/04 04:20:14;;;;;;;12.93;8.75;;;;;;;11.95;90.05;68101.63;5034407;28;20113;-83
2022/06/04 04:22:40;;;;;;;11.63;9.15;;;;;;;12.07;89.60;68114.13;5034111;28;20048;-84
2022/06/04 04:25:06;;;;;;;15.02;9.50;;;;;;;12.11;89.54;68121.34;5021501;28;20590;-83
2022/06/04 04:27:32;;;;;;;12.05;8.45;;;;;;;12.20;89.29;68128.91;4988764;28;20026;-84
2022/06/04 04:29:57;;;;;;;13.50;7.97;;;;;;;;;;5025736;28;20395;-84
2022/06/04 04:32:23;;;;;;;13.27;9.02;;;;;;;12.31;88.65;68141.41;5024814;28;20041;-84
2022/06/04 04:34:48;;;;;;;14.15;8.82;;;;;;;12.34;88.36;68144.81;5026084;28;20049;-84
2022/06/04 04:37:13;;;;;;;12.93;9.05;;;;;;;12.37;88.18;68148.25;5014029;28;20128;-84
2022/06/04 04:39:39;;;;;;;12.00;9.02;;;;;;;;;;5017600;28;20074;-84
2022/06/04 04:42:05;;;;;;;11.68;9.35;;;;;;;12.46;88.08;68157.91;5007144;28;20072;-84
2022/06/04 04:44:30;;;;;;;13.32;9.23;;;;;;;12.49;88.10;68155.41;5006493;28;20104;-83
2022/06/04 04:46:55;;;;;;;12.48;9.75;;;;;;;12.53;87.69;68165.28;5020401;28;20090;-83
2022/06/04 04:49:21;;;;;;;14.60;10.43;;;;;;;;;;5023438;28;20066;-83
2022/06/04 04:51:47;;;;;;;11.20;9.18;;;;;;;12.57;86.73;68169.81;5019083;28;20385;-83
2022/06/04 04:54:13;;;;;;;14.90;9.48;;;;;;;;;;5011444;28;20575;-83
2022/06/04 04:56:39;;;;;;;12.55;9.52;;;;;;;12.62;86.43;68180.84;5023056;28;20132;-83
2022/06/04 04:59:05;;;;;;;12.85;9.68;;;;;;;12.59;87.08;68178.00;5027225;28;20401;-83
2022/06/04 05:01:30;;;;;;;14.80;9.77;;;;;;;12.64;86.77;68178.34;5022184;28;20049;-83
2022/06/04 05:03:56;;;;;;;13.40;9.40;;;;;;;12.68;87.09;68185.00;5012108;28;20042;-83
2022/06/04 05:06:22;;;;;;;13.60;9.38;;;;;;;;;;5011965;28;20450;-83
2022/06/04 05:08:49;;;;;;;11.55;8.85;;;;;;;12.80;86.34;68195.97;5030284;28;20061;-83
2022/06/04 05:11:18;;;;;;;11.50;9.82;;;;;;;12.81;86.30;68202.44;5027965;28;20085;-83
2022/06/04 05:13:49;;;;;;;11.07;9.13;;;;;;;12.78;85.91;68193.69;5028070;28;20124;-84
2022/06/04 05:16:18;;;;;;;12.52;9.10;;;;;;;12.82;85.79;68192.91;5010340;28;20521;-83
2022/06/04 05:18:44;;;;;;;11.18;9.45;;;;;;;12.90;86.01;68208.88;5016211;28;20076;-83
2022/06/04 05:21:41;;;;;;;11.95;9.60;;;;;;;12.96;85.06;68215.69;5011040;28;20070;-82
2022/06/04 05:24:06;;;;;;;13.18;10.20;;;;;;;;;;4957049;28;20046;-83
2022/06/04 05:26:32;;;;;;;10.75;8.95;;;;;;;13.10;84.59;68223.59;5028021;28;20034;-83
2022/06/04 05:28:58;;;;;;;12.30;9.57;;;;;;;;;;5029206;28;20064;-83
2022/06/04 05:31:24;;;;;;;13.23;9.20;;;;;;;13.13;84.45;68232.34;5028351;28;20463;-84
2022/06/04 05:33:49;;;;;;;13.75;9.90;;;;;;;13.13;84.36;68235.03;5018874;28;20752;-83
2022/06/04 05:36:15;;;;;;;10.73;8.90;;;;;;;13.17;84.39;68236.91;5008024;28;20041;-84
2022/06/04 05:38:41;;;;;;;14.60;9.18;;;;;;;13.29;84.06;68250.00;5027360;28;20701;-83
2022/06/04 05:41:10;;;;;;;16.35;8.85;;;;;;;13.35;84.13;68262.19;5024338;28;20587;-83
2022/06/04 05:43:38;;;;;;;12.77;9.00;;;;;;;13.49;83.81;68272.19;5027210;28;20037;-83
2022/06/04 05:46:07;;;;;;;12.00;8.48;;;;;;;13.56;82.77;68279.59;5027206;28;20060;-82
2022/06/04 05:48:36;;;;;;;12.93;9.87;;;;;;;13.60;82.88;68284.69;5009600;28;20121;-83
2022/06/04 05:51:01;;;;;;;14.07;9.77;;;;;;;;;;5026525;28;20292;-83
2022/06/04 05:53:26;;;;;;;13.35;9.68;;;;;;;;;;5027312;28;20061;-83
2022/06/04 05:55:52;;;;;;;13.65;9.23;;;;;;;;;;5015321;28;20718;-83
2022/06/04 05:58:17;;;;;;;11.00;9.30;;;;;;;13.70;81.48;68296.06;5022241;28;20425;-83
2022/06/04 06:00:43;;;;;;;10.48;9.27;;;;;;;13.69;81.41;68294.94;5024163;28;20057;-83
2022/06/04 06:03:08;;;;;;;12.20;8.65;;;;;;;;;;5028490;28;20544;-84
2022/06/04 06:05:34;;;;;;;13.88;9.05;;;;;;;;;;5005858;28;20746;-84
2022/06/04 06:07:59;;;;;;;12.90;8.80;;;;;;;;;;5026348;28;20045;-84
2022/06/04 06:10:25;;;;;;;13.77;8.88;;;;;;;14.04;80.16;68333.63;5025804;28;20049;-84
2022/06/04 06:12:51;;;;;;;12.45;9.82;;;;;;;14.00;80.24;68329.06;5021629;28;20111;-83
2022/06/04 06:15:16;;;;;;;11.13;8.73;;;;;;;14.06;80.07;68335.31;4997904;28;20505;-82
2022/06/04 06:17:41;;;;;;;13.10;9.02;;;;;;;13.99;80.15;68328.50;5022981;28;20608;-83
2022/06/04 06:20:08;;;;;;;11.25;8.32;;;;;;;14.09;79.69;68339.31;5022303;28;20555;-83
2022/06/04 06:22:35;;;;;;;12.00;8.73;;;;;;;;;;5024751;28;20076;-82
2022/06/04 06:25:04;;;;;;;10.75;8.80;;;;;;;14.19;79.45;68350.69;5007025;28;20044;-82
2022/06/04 06:27:29;;;;;;;;;;;;;;;;;;5024155;28;20037;-83
2022/06/04 06:29:54;;;;;;;12.55;9.60;;;;;;;14.12;79.54;68342.72;5000554;28;19942;-82
2022/06/04 06:32:21;;;;;;;12.40;9.40;;;;;;;;;;5022413;28;20041;-83
2022/06/04 06:34:47;;;;;;;12.15;9.07;;;;;;;14.28;79.13;68360.38;5009813;28;20123;-82
2022/06/04 06:37:12;;;;;;;11.35;8.40;;;;;;;14.32;79.10;68364.34;5027065;28;20037;-83
2022/06/04 06:39:37;;;;;;;12.52;9.23;;;;;;;14.32;79.40;68364.34;5009893;28;20095;-82
2022/06/04 06:42:03;;;;;;;11.25;8.82;;;;;;;14.37;78.59;68370.03;5021709;28;20069;-83
2022/06/04 06:44:28;;;;;;;12.77;8.70;;;;;;;14.42;78.93;68375.75;5013406;28;20047;-84
2022/06/04 06:46:54;;;;;;;12.07;8.05;;;;;;;;;;5005492;28;20053;-84
2022/06/04 06:49:22;;;;;;;10.18;8.75;;;;;;;;;;5019851;28;20435;-85
2022/06/04 06:51:49;;;;;;;11.73;8.73;;;;;;;14.40;79.13;68373.47;5017626;28;20463;-84
2022/06/04 06:54:16;;;;;;;13.05;8.82;;;;;;;14.50;78.33;68384.25;5002458;28;20756;-84
2022/06/04 06:56:44;;;;;;;12.75;9.45;;;;;;;14.51;78.28;68385.97;5011984;28;20698;-83
2022/06/04 06:59:09;;;;;;;12.52;8.85;;;;;;;14.55;77.68;68389.97;5016643;28;20037;-83
2022/06/04 07:01:37;;;;;;;12.02;9.40;;;;;;;14.56;78.12;68391.13;5021483;28;20050;-84
2022/06/04 07:04:04;;;;;;;10.40;8.30;;;;;;;14.59;77.85;68395.13;5018280;28;20029;-84
2022/06/04 07:06:37;;;;;;;12.20;8.48;;;;;;;;;;5016672;28;20050;-84
2022/06/04 07:09:05;;;;;;;13.30;8.65;;;;;;;;;;5005889;28;20042;-83
2022/06/04 07:11:31;;;;;;;11.70;8.75;;;;;;;;;;5013042;28;20046;-85
2022/06/04 07:13:56;;;;;;;11.77;9.18;;;;;;;;;;5018480;28;20060;-84
2022/06/04 07:16:22;;;;;;;10.88;9.07;;;;;;;14.82;77.64;68420.75;5017442;28;20107;-83
2022/06/04 07:18:47;;;;;;;11.93;8.70;;;;;;;;;;4998268;28;20093;-85
2022/06/04 07:21:13;;;;;;;15.10;9.77;;;;;;;;;;5019656;28;20049;-84
2022/06/04 07:23:39;;;;;;;10.43;8.60;;;;;;;14.90;76.56;68429.25;5018659;28;20044;-84
2022/06/04 07:26:05;;;;;;;12.77;8.18;;;;;;;;;;5021612;28;20045;-84
2022/06/04 07:28:30;;;;;;;12.60;8.70;;;;;;;;;;5020443;28;20053;-84
2022/06/04 07:30:56;;;;;;;9.75;8.20;;;;;;;;;;5015617;28;20069;-84
2022/06/04 07:33:21;;;;;;;13.15;8.48;;;;;;;15.12;75.34;68454.31;5023658;28;20057;-82
2022/06/04 07:35:48;;;;;;;10.13;9.00;;;;;;;15.12;75.46;68445.72;5023258;28;20045;-83
2022/06/04 07:38:13;;;;;;;11.32;8.40;;;;;;;15.14;75.18;68456.03;5012076;28;20088;-83
2022/06/04 07:40:39;;;;;;;11.93;8.23;;;;;;;15.29;75.63;68472.56;5004731;28;20537;-84
2022/06/04 07:43:05;;;;;;;10.98;7.47;;;;;;;;;;5016297;28;20448;-83
2022/06/04 07:45:30;;;;;;;9.75;7.90;;;;;;;15.50;74.65;68490.53;5020423;28;20060;-83
2022/06/04 07:47:55;;;;;;;10.93;8.20;;;;;;;15.50;74.75;68496.47;5026609;28;20567;-85
2022/06/04 07:50:21;;;;;;;11.73;7.85;;;;;;;15.63;74.41;68510.16;5028187;28;20037;-85
2022/06/04 07:52:46;;;;;;;12.73;8.38;;;;;;;15.77;74.76;68526.13;5027512;28;20042;-84
2022/06/04 07:55:12;;;;;;;10.35;8.45;;;;;;;15.87;73.75;68537.50;5030749;28;20048;-88
2022/06/04 07:57:38;;;;;;;11.18;7.45;;;;;;;;;;5018062;28;20417;-86
2022/06/04 08:00:07;;;;;;;9.77;7.43;;;;;;;16.01;73.19;68545.41;5036675;28;20056;-84
2022/06/04 08:02:32;;;;;;;10.73;8.35;;;;;;;16.12;72.56;68564.88;5037830;28;20058;-85
2022/06/04 08:04:58;;;;;;;12.15;7.90;;;;;;;;;;5033142;28;20042;-87
2022/06/04 08:07:24;;;;;;;10.27;7.87;;;;;;;16.19;72.46;68567.47;5034853;28;20057;-85
2022/06/04 08:09:50;;;;;;;10.18;7.55;;;;;;;16.30;71.51;68585.38;5038485;28;20284;-84
2022/06/04 08:12:16;;;;;;;11.25;7.53;;;;;;;16.41;72.01;68597.38;5033236;28;20065;-84
2022/06/04 08:14:42;;;;;;;10.02;7.15;;;;;;;16.42;71.76;68599.06;5031502;28;20041;-84
2022/06/04 08:17:08;;;;;;;9.70;8.05;;;;;;;;;;5021085;28;20044;-87
2022/06/04 08:19:33;;;;;;;12.52;7.75;;;;;;;;;;5045057;28;20076;-87
2022/06/04 08:21:59;;;;;;;11.23;7.10;;;;;;;;;;5020265;28;20055;-87
2022/06/04 08:24:25;;;;;;;10.93;7.80;;;;;;;16.66;70.04;68619.94;5035371;28;20325;-86
2022/06/04 08:26:58;;;;;;;9.82;6.53;;;;;;;16.83;69.49;68650.09;5045394;28;20056;-88
2022/06/04 08:29:30;;;;;;;12.18;7.80;;;;;;;16.96;68.64;68658.41;5042003;28;20042;-87
2022/06/04 08:31:56;;;;;;;9.05;6.93;;;;;;;17.08;68.15;68672.06;5035790;28;20116;-88
2022/06/04 08:34:21;;;;;;;9.38;7.20;;;;;;;17.17;68.08;68676.41;5040662;28;20080;-88
2022/06/04 08:36:46;;;;;;;10.05;7.47;;;;;;;;;;5041206;28;20046;-84
2022/06/04 08:39:12;;;;;;;10.40;7.30;;;;;;;17.29;67.21;68696.03;5046271;28;20056;-86
2022/06/04 08:41:40;;;;;;;10.82;6.80;;;;;;;;;;5045162;28;20309;-86
2022/06/04 08:44:37;;;;;;;9.03;6.27;;;;;;;17.63;66.71;68728.31;5028588;28;20041;-87
2022/06/04 08:47:17;;;;;;;11.63;7.10;;;;;;;17.79;66.60;68746.59;5034174;28;20288;-85
2022/06/04 08:49:47;;;;;;;10.40;6.85;;;;;;;;;;5023672;28;20080;-88
2022/06/04 08:52:24;;;;;;;9.38;6.65;;;;;;;17.97;64.77;68766.00;5052450;28;20039;-89
2022/06/04 08:57:46;;;;;;;9.13;6.50;;;;;;;18.25;63.56;68797.38;5030713;28;20512;-87
2022/06/04 09:00:12;;;;;;;8.27;6.90;;;;;;;18.46;64.58;68820.78;5039717;28;20061;-83
2022/06/04 09:03:03;;;;;;;8.73;6.18;;;;;;;;;;5015652;28;20046;-87
2022/06/04 09:05:50;;;;;;;7.47;5.68;;;;;;;18.58;62.67;68834.47;5017243;28;20780;-87
2022/06/04 09:08:50;;;;;;;9.75;5.93;;;;;;;18.77;63.65;68855.06;4983867;28;20072;-85
2022/06/04 09:11:37;;;;;;;9.45;6.32;;;;;;;;;;5040633;28;20045;-86
2022/06/04 09:14:02;;;;;;;10.30;6.15;;;;;;;;;;5047555;22;20034;-77
2022/06/04 09:16:30;;;;;;;16.90;6.90;;;;;;;;;;5014739;28;20052;-77
2022/06/04 09:18:58;;;;;;;9.02;7.00;;;;;;;;;;5012391;28;20460;-77
2022/06/04 09:21:26;;;;;;;12.35;6.70;;;;;;;;;;5004518;28;20104;-77
2022/06/04 09:23:51;;;;;;;11.63;6.93;;;;;;;19.32;60.10;68917.31;5005479;28;20084;-77
2022/06/04 09:26:24;;;;;;;8.68;7.10;;;;;;;;;;5008827;28;20685;-77
2022/06/04 09:29:19;;;;;;;8.80;6.10;;;;;;;;;;5020993;28;20041;-77
2022/06/04 09:32:09;;;;;;;8.80;6.82;;;;;;;19.46;59.71;68932.75;4998779;28;20048;-78
2022/06/04 09:34:53;;;;;;;7.20;6.03;;;;;;;19.52;58.79;68939.03;5008146;28;20119;-77
2022/06/04 09:37:18;;;;;;;10.68;7.25;;;;;;;19.60;59.60;68953.59;5017468;28;20112;-77
2022/06/04 09:39:47;;;;;;;12.20;6.50;;;;;;;19.71;58.78;68960.19;5012372;28;20033;-77
2022/06/04 09:42:13;;;;;;;13.02;7.45;;;;;;;19.83;60.33;68973.91;5013655;28;20109;-77
2022/06/04 09:44:51;;;;;;;7.35;5.97;;;;;;;20.08;59.92;69001.91;5017776;28;20046;-77
2022/06/04 09:47:28;;;;;;;10.18;7.50;;;;;;;20.11;58.55;69004.78;5012342;28;20038;-76
2022/06/04 09:50:03;;;;;;;8.25;6.93;;;;;;;20.17;59.32;69011.63;5007776;28;20053;-77
2022/06/04 09:52:36;;;;;;;10.40;6.40;;;;;;;20.40;58.25;69037.94;5007513;28;20497;-77
2022/06/04 09:55:23;;;;;;;8.75;6.28;;;;;;;20.48;56.96;69052.50;5006400;28;20734;-77
2022/06/04 09:58:00;;;;;;;11.38;6.35;;;;;;;;;;5004862;28;20042;-76
2022/06/04 10:00:35;;;;;;;15.50;7.03;;;;;;;20.61;57.96;69060.84;4989964;28;20053;-77
2022/06/04 10:03:19;;;;;;;12.02;7.45;;;;;;;20.57;57.95;69056.25;5004112;28;20046;-77
2022/06/04 10:06:00;;;;;;;10.35;6.88;;;;;;;20.77;56.81;69073.69;5006090;28;20041;-77
2022/06/04 10:08:26;;;;;;;7.78;6.20;;;;;;;;;;5002544;28;20628;-77
2022/06/04 10:11:05;;;;;;;9.70;7.47;;;;;;;20.70;55.92;69076.53;4984924;28;20647;-76
2022/06/04 10:13:42;;;;;;;10.75;7.05;;;;;;;20.84;56.82;69086.56;4980393;28;20060;-76
2022/06/04 10:16:22;;;;;;;9.90;7.13;;;;;;;20.84;56.36;69083.84;4972303;28;20120;-75
2022/06/04 10:18:55;;;;;;;10.57;7.18;;;;;;;20.90;56.81;69094.00;4980874;28;20038;-76
2022/06/04 10:21:23;;;;;;;8.00;6.65;;;;;;;20.95;56.21;69099.16;4980612;28;20128;-75
2022/06/04 10:23:52;;;;;;;9.27;7.30;;;;;;;20.98;56.70;69099.31;4979345;28;20104;-76
2022/06/04 10:26:26;;;;;;;10.37;7.07;;;;;;;20.99;56.17;69103.72;4977274;28;20497;-76
2022/06/04 10:29:20;;;;;;;12.18;8.27;;;;;;;;;;4978813;28;20046;-77
2022/06/04 10:32:04;;;;;;;10.45;8.10;;;;;;;20.96;57.06;69100.84;4911314;28;20565;-77
2022/06/04 10:34:35;;;;;;;8.75;6.57;;;;;;;21.26;57.34;69134.03;4981741;28;20524;-76
2022/06/04 10:37:11;;;;;;;13.82;8.75;;;;;;;;;;4979858;28;20100;-77
2022/06/04 10:39:56;;;;;;;9.15;7.82;;;;;;;21.22;55.28;69128.88;4981280;28;20046;-76
2022/06/04 10:42:36;;;;;;;10.57;8.32;;;;;;;21.32;55.11;69140.31;4967873;28;20790;-76
2022/06/04 10:45:34;;;;;;;10.65;7.97;;;;;;;21.22;55.96;69129.47;5003771;28;20049;-76
2022/06/04 10:48:21;;;;;;;9.80;6.80;;;;;;;21.71;57.08;69184.41;5003548;28;20041;-76
2022/06/04 10:53:50;;;;;;;8.50;7.47;;;;;;;21.72;54.39;69182.84;5004004;28;20481;-77
2022/06/04 10:56:21;;;;;;;11.68;7.00;;;;;;;22.01;53.87;69214.88;5002327;28;20101;-76
2022/06/04 10:59:14;;;;;;;7.60;6.00;;;;;;;22.37;53.33;69258.25;5004101;28;20046;-77
2022/06/04 11:01:48;;;;;;;9.23;6.97;;;;;;;22.38;51.45;69258.84;4999613;28;20050;-75
2022/06/04 11:04:22;;;;;;;10.63;6.72;;;;;;;22.32;52.16;69251.97;5003726;28;20088;-77
2022/06/04 11:06:57;;;;;;;8.48;6.50;;;;;;;22.38;51.32;69259.41;5001688;28;20046;-75
2022/06/04 11:09:38;;;;;;;8.45;6.78;;;;;;;22.28;52.00;69247.97;4985084;28;20049;-75
2022/06/04 11:12:30;;;;;;;10.35;6.70;;;;;;;22.38;50.89;69259.41;5001797;28;20038;-76
2022/06/04 11:15:04;;;;;;;12.18;6.72;;;;;;;22.41;52.01;69262.28;5002969;28;20520;-77
2022/06/04 11:18:05;;;;;;;11.60;7.80;;;;;;;22.67;50.26;69286.63;5003604;28;20691;-77
2022/06/04 11:20:33;;;;;;;12.90;6.43;;;;;;;;;;4984686;28;20042;-76
2022/06/04 11:23:05;;;;;;;9.40;6.87;;;;;;;22.55;50.48;69278.31;5001866;28;20140;-76
2022/06/04 11:25:32;;;;;;;15.85;8.25;;;;;;;;;;5002859;28;20038;-76
2022/06/04 11:28:07;;;;;;;26.73;11.50;;;;;;;22.28;52.32;69245.81;5002511;28;20484;-76
2022/06/04 11:30:53;;;;;;;12.05;6.90;;;;;;;22.44;51.23;69265.69;5003007;28;20046;-76
2022/06/04 11:33:43;;;;;;;8.93;6.70;;;;;;;22.57;51.81;69280.59;4996008;28;20042;-77
2022/06/04 11:36:24;;;;;;;10.73;6.80;;;;;;;22.81;51.04;69306.94;5002492;28;20562;-77
2022/06/04 11:38:49;;;;;;;10.38;6.35;;;;;;;;;;5001172;28;20603;-76
2022/06/04 11:41:14;;;;;;;8.27;7.23;;;;;;;;;;5003383;28;20129;-77
2022/06/04 11:44:22;;;;;;;7.47;5.83;;;;;;;22.90;51.54;69309.69;5002574;28;20033;-76
2022/06/04 11:47:17;;;;;;;9.20;6.05;;;;;;;23.04;51.24;69327.88;4999314;28;20056;-76
2022/06/04 11:49:55;;;;;;;7.80;6.10;;;;;;;22.89;51.07;69310.69;5001220;28;20045;-77
2022/06/04 11:52:29;;;;;;;7.70;6.53;;;;;;;22.98;50.09;69323.72;5000945;28;20065;-77
2022/06/04 11:55:04;;;;;;;9.85;6.53;;;;;;;;;;5004151;28;20049;-77
2022/06/04 11:57:46;;;;;;;10.52;6.20;;;;;;;23.08;51.01;69337.91;5004994;28;20056;-77
2022/06/04 12:00:25;;;;;;;7.97;7.03;;;;;;;23.18;50.50;69354.78;5015383;28;20037;-76
2022/06/04 12:03:09;;;;;;;7.03;6.03;;;;;;;23.25;48.95;69356.22;5001380;28;20049;-75
2022/06/04 12:05:37;;;;;;;8.82;5.50;;;;;;;23.26;50.34;69354.66;5003559;28;20038;-77
2022/06/04 12:08:09;;;;;;;9.38;5.85;;;;;;;23.55;50.01;69390.59;5005223;28;20046;-77
2022/06/04 12:10:55;;;;;;;10.30;6.15;;;;;;;23.62;50.67;69398.03;5005585;28;20076;-77
2022/06/04 12:13:26;;;;;;;10.85;6.32;;;;;;;23.93;48.03;69429.72;4998246;28;20056;-77
2022/06/04 12:16:06;;;;;;;7.32;5.40;;;;;;;24.14;47.93;69455.94;5002221;28;20129;-77
2022/06/04 12:18:40;;;;;;;9.30;6.32;;;;;;;;;;5003941;28;20091;-77
2022/06/04 12:24:44;;;;;;;7.88;5.82;;;;;;;23.77;48.59;69411.97;5001396;28;20700;-76
2022/06/04 12:27:23;;;;;;;8.02;6.13;;;;;;;23.72;48.95;69409.53;4986483;28;20077;-76
2022/06/04 12:29:50;;;;;;;;;;;;;;;24.04;49.32;69445.63;5005757;28;20030;-77
2022/06/04 12:32:30;;;;;;;7.28;5.25;;;;;;;24.28;47.73;69469.88;5002069;28;19928;-75
2022/06/04 12:35:11;;;;;;;6.75;5.28;;;;;;;24.33;47.34;69475.00;5002031;28;20038;-76
2022/06/04 12:37:53;;;;;;;7.97;6.00;;;;;;;24.29;47.50;69473.72;5001971;28;20126;-76
2022/06/04 12:40:18;;;;;;;7.13;4.95;;;;;;;24.45;47.33;69488.78;4997243;28;20104;-76